»·PEaware :: SKW3018 KPHX-KFLG

SKW3018 :: KPHX-KFLG

FLIGHT INFORMATION

Flight Status: Arrived
Operator:
SkyWest Airlines
More flights by this operator :: More flights under this callsign
Pilot: Anonymous 11975 (11975)
Aircraft: CANADAIR CL-600 CRJ-700
(CRJ7)
More flights by this aircraft type
Origin: KPHX Phoenix Sky Harbor Intl
United States
Destination: KFLG Flagstaff Pulliam
United States
More flights between these airports :: More routes between these airports
Route: QUAKY1 CARTL FLG
File this flight plan on PilotEdge
Remarks:
Altitude:
(Current/Filed)
16,000ft
Speed:
(Current/Filed)
388kts
Departed: 28-Aug-22 01:37 PM
Arrived: 28-Aug-22 02:05 PM
Distance/Time
Traveled:
104nm/0:28
Distance/Time
To Go:
Arrived

Flight Plot

Page will automatically refresh every two minutes.

Flight plan parsing failed; only flown route is shown


Map Options




Map Legend


Flown Route
Filed Route
Departure Airport
Arrival Airport
Navaid (VOR, NDB)
Fix

Horizontal Profiles

Position Reports

Time Latitude Longitude Heading Altitude Ground
Speed
28-Aug-22 12:56 33.436544 -111.995072 123 1138ft 0kts
28-Aug-22 12:57 33.436544 -111.995072 123 1138ft 0kts
28-Aug-22 12:58 33.436544 -111.995072 123 1138ft 0kts
28-Aug-22 12:59 33.436544 -111.995072 123 1138ft 0kts
28-Aug-22 13:00 33.436544 -111.995072 123 1138ft 0kts
28-Aug-22 13:01 33.436544 -111.995072 123 1138ft 0kts
28-Aug-22 13:02 33.436544 -111.995072 123 1138ft 0kts
28-Aug-22 13:03 33.436544 -111.995072 123 1138ft 0kts
28-Aug-22 13:04 33.436544 -111.995072 123 1138ft 0kts
28-Aug-22 13:05 33.436544 -111.995072 123 1138ft 0kts
28-Aug-22 13:06 33.436544 -111.995072 123 1138ft 0kts
28-Aug-22 13:07 33.436544 -111.995072 123 1138ft 0kts
28-Aug-22 13:08 33.436544 -111.995072 123 1138ft 0kts
28-Aug-22 13:09 33.436544 -111.995072 123 1138ft 0kts
28-Aug-22 13:10 33.436544 -111.995072 123 1138ft 0kts
28-Aug-22 13:11 33.436544 -111.995072 123 1138ft 0kts
28-Aug-22 13:12 33.436544 -111.995072 123 1138ft 0kts
28-Aug-22 13:13 33.436544 -111.995072 123 1138ft 0kts
28-Aug-22 13:14 33.436544 -111.995072 123 1138ft 0kts
28-Aug-22 13:15 33.436544 -111.995072 123 1138ft 0kts
28-Aug-22 13:16 33.436544 -111.995072 123 1138ft 0kts
28-Aug-22 13:17 33.436544 -111.995072 123 1138ft 0kts
28-Aug-22 13:18 33.436544 -111.995072 123 1138ft 0kts
28-Aug-22 13:19 33.436544 -111.995072 123 1138ft 0kts
28-Aug-22 13:21 33.436544 -111.995072 123 1138ft 0kts
28-Aug-22 13:22 33.436544 -111.995072 123 1138ft 0kts
28-Aug-22 13:23 33.436544 -111.995072 123 1138ft 0kts
28-Aug-22 13:24 33.436544 -111.995072 123 1138ft 0kts
28-Aug-22 13:25 33.436544 -111.995072 123 1165ft 0kts
28-Aug-22 13:26 33.436544 -111.995072 123 1165ft 0kts
28-Aug-22 13:27 33.436544 -111.995072 123 1165ft 0kts
28-Aug-22 13:28 33.436703 -111.995354 123 1139ft 2kts
28-Aug-22 13:29 33.436867 -111.995648 123 1139ft 0kts
28-Aug-22 13:30 33.436867 -111.995647 123 1139ft 0kts
28-Aug-22 13:31 33.436859 -111.995632 121 1140ft 1kts
28-Aug-22 13:32 33.438349 -111.995339 0 1143ft 9kts
28-Aug-22 13:33 33.438537 -111.992282 178 1142ft 13kts
28-Aug-22 13:34 33.435112 -111.992290 180 1145ft 13kts
28-Aug-22 13:35 33.432103 -111.992618 224 1141ft 0kts
28-Aug-22 13:36 33.431162 -111.993703 230 1139ft 16kts
28-Aug-22 13:37 33.430844 -112.026407 272 2077ft 167kts
28-Aug-22 13:38 33.431886 -112.088415 271 5049ft 219kts
28-Aug-22 13:39 33.434997 -112.170445 281 8023ft 263kts
28-Aug-22 13:40 33.497054 -112.197819 9 11335ft 274kts
28-Aug-22 13:41 33.576757 -112.184326 14 13599ft 328kts
28-Aug-22 13:42 33.658873 -112.119513 46 15732ft 388kts
28-Aug-22 13:43 33.731438 -112.023130 42 16004ft 391kts
28-Aug-22 13:44 33.832737 -111.983211 9 15977ft 386kts
28-Aug-22 13:45 33.938923 -111.964661 7 15953ft 383kts
28-Aug-22 13:45 34.026839 -111.948131 8 15619ft 378kts
28-Aug-22 13:47 34.148361 -111.939909 352 15131ft 390kts
28-Aug-22 13:48 34.258920 -111.954567 354 14072ft 398kts
28-Aug-22 13:49 34.366662 -111.965924 354 12999ft 385kts
28-Aug-22 13:50 34.472503 -111.977713 354 11905ft 381kts
28-Aug-22 13:50 34.558116 -111.987338 354 11051ft 341kts
28-Aug-22 13:51 34.644395 -111.997010 354 9973ft 291kts
28-Aug-22 13:53 34.736337 -112.007207 354 8870ft 284kts
28-Aug-22 13:54 34.809585 -111.974203 36 8799ft 294kts
28-Aug-22 13:55 34.874151 -111.914407 35 8838ft 295kts
28-Aug-22 13:55 34.929747 -111.865456 34 8852ft 294kts
28-Aug-22 13:56 34.991037 -111.801120 46 8773ft 287kts
28-Aug-22 13:57 35.038951 -111.736517 47 8773ft 230kts
28-Aug-22 13:58 35.079588 -111.677814 53 8688ft 226kts
28-Aug-22 14:00 35.119728 -111.608335 54 8695ft 209kts
28-Aug-22 14:00 35.146180 -111.562151 48 8603ft 191kts
28-Aug-22 14:01 35.186752 -111.573647 312 8218ft 150kts
28-Aug-22 14:02 35.182418 -111.624382 221 7909ft 168kts
28-Aug-22 14:03 35.149618 -111.659339 219 7135ft 150kts
28-Aug-22 14:04 35.134538 -111.676688 311 7005ft 0kts
28-Aug-22 14:05 35.135485 -111.676186 41 7003ft 14kts
28-Aug-22 14:06 35.138253 -111.674274 351 6995ft 0kts
28-Aug-22 14:07 35.138489 -111.674322 350 7005ft 0kts
28-Aug-22 14:08 35.138489 -111.674322 350 7005ft 0kts
28-Aug-22 14:09 35.138489 -111.674322 350 7005ft 0kts
28-Aug-22 14:10 35.138489 -111.674322 350 7005ft 0kts
28-Aug-22 14:11 35.138489 -111.674322 350 7005ft 0kts
28-Aug-22 14:12 35.138489 -111.674322 350 7005ft 0kts
28-Aug-22 14:13 35.138489 -111.674322 350 7005ft 0kts
28-Aug-22 14:14 35.138489 -111.674322 350 7005ft 0kts
28-Aug-22 14:15 35.138489 -111.674322 350 7005ft 0kts
28-Aug-22 14:16 35.138489 -111.674322 350 7005ft 0kts
28-Aug-22 14:17 35.138489 -111.674322 350 7005ft 0kts
28-Aug-22 14:18 35.138489 -111.674322 350 7005ft 0kts

Navigation Log

Ident Type
Flight plan parsing failed, navigation log unavailable